sensor_id;sensor_type;location;lat;lon;timestamp;temperature;humidity
5226;DHT22;2632;51.666;7.146;2023-03-17T00:01:42;9.40;90.50
5226;DHT22;2632;51.666;7.146;2023-03-17T00:04:11;9.40;90.40
5226;DHT22;2632;51.666;7.146;2023-03-17T00:06:38;9.50;90.40
5226;DHT22;2632;51.666;7.146;2023-03-17T00:09:17;9.50;90.50
5226;DHT22;2632;51.666;7.146;2023-03-17T00:11:45;9.50;90.40
5226;DHT22;2632;51.666;7.146;2023-03-17T00:14:12;9.50;90.40
5226;DHT22;2632;51.666;7.146;2023-03-17T00:16:44;9.50;90.70
5226;DHT22;2632;51.666;7.146;2023-03-17T00:19:16;9.40;91.50
5226;DHT22;2632;51.666;7.146;2023-03-17T00:21:44;9.40;91.20
5226;DHT22;2632;51.666;7.146;2023-03-17T00:24:12;9.30;92.20
5226;DHT22;2632;51.666;7.146;2023-03-17T00:26:41;9.30;92.30
5226;DHT22;2632;51.666;7.146;2023-03-17T00:29:08;9.20;92.10
5226;DHT22;2632;51.666;7.146;2023-03-17T00:31:35;9.30;91.60
5226;DHT22;2632;51.666;7.146;2023-03-17T00:34:03;9.40;91.40
5226;DHT22;2632;51.666;7.146;2023-03-17T00:36:32;9.30;92.50
5226;DHT22;2632;51.666;7.146;2023-03-17T00:38:59;9.30;91.50
5226;DHT22;2632;51.666;7.146;2023-03-17T00:41:26;9.40;91.70
5226;DHT22;2632;51.666;7.146;2023-03-17T00:43:54;9.30;92.40
5226;DHT22;2632;51.666;7.146;2023-03-17T00:46:25;9.30;91.20
5226;DHT22;2632;51.666;7.146;2023-03-17T00:49:02;9.40;91.40
5226;DHT22;2632;51.666;7.146;2023-03-17T00:51:30;9.40;90.80
5226;DHT22;2632;51.666;7.146;2023-03-17T00:53:57;9.40;91.20
5226;DHT22;2632;51.666;7.146;2023-03-17T00:56:24;9.30;91.30
5226;DHT22;2632;51.666;7.146;2023-03-17T00:58:50;9.30;91.40
5226;DHT22;2632;51.666;7.146;2023-03-17T01:01:17;9.30;91.60
5226;DHT22;2632;51.666;7.146;2023-03-17T01:03:44;9.30;92.00
5226;DHT22;2632;51.666;7.146;2023-03-17T01:06:12;9.30;91.30
5226;DHT22;2632;51.666;7.146;2023-03-17T01:08:40;9.40;91.10
5226;DHT22;2632;51.666;7.146;2023-03-17T01:11:16;9.40;91.30
5226;DHT22;2632;51.666;7.146;2023-03-17T01:13:44;9.40;91.40
5226;DHT22;2632;51.666;7.146;2023-03-17T01:16:12;9.40;91.30
5226;DHT22;2632;51.666;7.146;2023-03-17T01:18:39;9.40;91.30
5226;DHT22;2632;51.666;7.146;2023-03-17T01:21:06;9.40;91.50
5226;DHT22;2632;51.666;7.146;2023-03-17T01:23:33;9.30;91.40
5226;DHT22;2632;51.666;7.146;2023-03-17T01:25:59;9.30;91.40
5226;DHT22;2632;51.666;7.146;2023-03-17T01:28:27;9.30;91.40
5226;DHT22;2632;51.666;7.146;2023-03-17T01:30:53;9.30;91.40
5226;DHT22;2632;51.666;7.146;2023-03-17T01:33:20;9.40;91.10
5226;DHT22;2632;51.666;7.146;2023-03-17T01:35:49;9.50;90.50
5226;DHT22;2632;51.666;7.146;2023-03-17T01:38:16;9.50;90.70
5226;DHT22;2632;51.666;7.146;2023-03-17T01:40:46;9.50;90.40
5226;DHT22;2632;51.666;7.146;2023-03-17T01:43:26;9.50;90.50
5226;DHT22;2632;51.666;7.146;2023-03-17T01:46:30;9.60;90.30
5226;DHT22;2632;51.666;7.146;2023-03-17T01:57:17;9.40;90.70
5226;DHT22;2632;51.666;7.146;2023-03-17T01:59:49;9.30;90.70
5226;DHT22;2632;51.666;7.146;2023-03-17T02:02:29;9.30;90.70
5226;DHT22;2632;51.666;7.146;2023-03-17T02:04:56;9.30;90.30
5226;DHT22;2632;51.666;7.146;2023-03-17T02:07:24;9.40;90.50
5226;DHT22;2632;51.666;7.146;2023-03-17T02:09:53;9.40;90.00
5226;DHT22;2632;51.666;7.146;2023-03-17T02:12:21;9.40;90.00
5226;DHT22;2632;51.666;7.146;2023-03-17T02:14:51;9.30;90.80
5226;DHT22;2632;51.666;7.146;2023-03-17T02:17:19;9.30;90.50
5226;DHT22;2632;51.666;7.146;2023-03-17T02:19:46;9.30;90.20
5226;DHT22;2632;51.666;7.146;2023-03-17T02:22:15;9.40;89.70
5226;DHT22;2632;51.666;7.146;2023-03-17T02:24:45;9.30;90.10
5226;DHT22;2632;51.666;7.146;2023-03-17T02:27:27;9.30;90.20
5226;DHT22;2632;51.666;7.146;2023-03-17T02:29:56;9.30;90.20
5226;DHT22;2632;51.666;7.146;2023-03-17T02:32:23;9.20;90.10
5226;DHT22;2632;51.666;7.146;2023-03-17T02:34:50;9.30;90.30
5226;DHT22;2632;51.666;7.146;2023-03-17T02:37:18;9.30;90.50
5226;DHT22;2632;51.666;7.146;2023-03-17T02:39:45;9.30;90.30
5226;DHT22;2632;51.666;7.146;2023-03-17T02:42:12;9.20;91.00
5226;DHT22;2632;51.666;7.146;2023-03-17T02:44:39;9.10;91.90
5226;DHT22;2632;51.666;7.146;2023-03-17T02:47:06;8.90;92.70
5226;DHT22;2632;51.666;7.146;2023-03-17T02:49:35;8.80;93.40
5226;DHT22;2632;51.666;7.146;2023-03-17T02:52:03;8.90;91.90
5226;DHT22;2632;51.666;7.146;2023-03-17T02:54:30;8.80;93.30
5226;DHT22;2632;51.666;7.146;2023-03-17T02:56:57;8.80;92.20
5226;DHT22;2632;51.666;7.146;2023-03-17T02:59:24;8.80;92.60
5226;DHT22;2632;51.666;7.146;2023-03-17T03:01:51;8.80;92.50
5226;DHT22;2632;51.666;7.146;2023-03-17T03:04:18;8.90;92.20
5226;DHT22;2632;51.666;7.146;2023-03-17T03:06:46;8.80;92.10
5226;DHT22;2632;51.666;7.146;2023-03-17T03:09:13;8.80;92.20
5226;DHT22;2632;51.666;7.146;2023-03-17T03:11:40;8.80;91.90
5226;DHT22;2632;51.666;7.146;2023-03-17T03:14:07;8.80;92.50
5226;DHT22;2632;51.666;7.146;2023-03-17T03:16:33;8.60;93.10
5226;DHT22;2632;51.666;7.146;2023-03-17T03:19:00;8.40;94.90
5226;DHT22;2632;51.666;7.146;2023-03-17T03:21:27;8.40;94.20
5226;DHT22;2632;51.666;7.146;2023-03-17T03:23:54;8.20;95.00
5226;DHT22;2632;51.666;7.146;2023-03-17T03:26:21;8.10;95.70
5226;DHT22;2632;51.666;7.146;2023-03-17T03:28:48;8.10;95.90
5226;DHT22;2632;51.666;7.146;2023-03-17T03:31:15;8.00;95.80
5226;DHT22;2632;51.666;7.146;2023-03-17T03:33:43;8.00;95.60
5226;DHT22;2632;51.666;7.146;2023-03-17T03:36:10;7.80;96.90
5226;DHT22;2632;51.666;7.146;2023-03-17T03:38:37;7.70;97.40
5226;DHT22;2632;51.666;7.146;2023-03-17T03:41:04;7.80;96.50
5226;DHT22;2632;51.666;7.146;2023-03-17T03:43:31;7.80;96.50
5226;DHT22;2632;51.666;7.146;2023-03-17T03:45:58;7.80;96.90
5226;DHT22;2632;51.666;7.146;2023-03-17T03:48:25;7.70;97.40
5226;DHT22;2632;51.666;7.146;2023-03-17T03:50:58;7.50;97.80
5226;DHT22;2632;51.666;7.146;2023-03-17T03:53:26;7.40;97.70
5226;DHT22;2632;51.666;7.146;2023-03-17T03:55:54;7.50;98.10
5226;DHT22;2632;51.666;7.146;2023-03-17T03:58:21;7.50;97.80
5226;DHT22;2632;51.666;7.146;2023-03-17T04:00:48;7.70;97.00
5226;DHT22;2632;51.666;7.146;2023-03-17T04:03:16;7.90;96.60
5226;DHT22;2632;51.666;7.146;2023-03-17T04:05:42;7.60;97.80
5226;DHT22;2632;51.666;7.146;2023-03-17T04:08:09;7.30;98.90
5226;DHT22;2632;51.666;7.146;2023-03-17T04:10:36;7.10;99.20
5226;DHT22;2632;51.666;7.146;2023-03-17T04:13:03;7.00;99.80
5226;DHT22;2632;51.666;7.146;2023-03-17T04:15:30;6.90;99.70
5226;DHT22;2632;51.666;7.146;2023-03-17T04:17:56;6.70;99.90
5226;DHT22;2632;51.666;7.146;2023-03-17T04:20:23;6.60;99.90
5226;DHT22;2632;51.666;7.146;2023-03-17T04:22:50;6.50;99.90
5226;DHT22;2632;51.666;7.146;2023-03-17T04:25:17;6.30;99.90
5226;DHT22;2632;51.666;7.146;2023-03-17T04:27:44;6.30;99.90
5226;DHT22;2632;51.666;7.146;2023-03-17T04:30:11;6.30;99.90
5226;DHT22;2632;51.666;7.146;2023-03-17T04:32:43;6.30;99.90
5226;DHT22;2632;51.666;7.146;2023-03-17T04:35:15;6.10;99.90
5226;DHT22;2632;51.666;7.146;2023-03-17T04:37:42;6.10;99.90
5226;DHT22;2632;51.666;7.146;2023-03-17T04:40:11;6.10;99.90
5226;DHT22;2632;51.666;7.146;2023-03-17T04:42:39;6.10;99.90
5226;DHT22;2632;51.666;7.146;2023-03-17T04:45:12;6.10;99.90
5226;DHT22;2632;51.666;7.146;2023-03-17T04:47:40;6.00;99.90
5226;DHT22;2632;51.666;7.146;2023-03-17T04:50:08;6.00;99.90
5226;DHT22;2632;51.666;7.146;2023-03-17T04:52:35;5.90;99.90
5226;DHT22;2632;51.666;7.146;2023-03-17T04:55:03;5.90;99.90
5226;DHT22;2632;51.666;7.146;2023-03-17T04:57:30;5.90;99.90
5226;DHT22;2632;51.666;7.146;2023-03-17T04:59:57;5.90;99.90
5226;DHT22;2632;51.666;7.146;2023-03-17T05:02:24;5.80;99.90
5226;DHT22;2632;51.666;7.146;2023-03-17T05:04:51;5.80;99.90
5226;DHT22;2632;51.666;7.146;2023-03-17T05:07:18;5.80;99.90
5226;DHT22;2632;51.666;7.146;2023-03-17T05:09:45;6.00;99.90
5226;DHT22;2632;51.666;7.146;2023-03-17T05:12:13;5.80;99.90
5226;DHT22;2632;51.666;7.146;2023-03-17T05:14:40;5.80;99.90
5226;DHT22;2632;51.666;7.146;2023-03-17T05:17:07;5.80;99.90
5226;DHT22;2632;51.666;7.146;2023-03-17T05:19:33;5.80;99.90
5226;DHT22;2632;51.666;7.146;2023-03-17T05:22:00;5.80;99.90
5226;DHT22;2632;51.666;7.146;2023-03-17T05:24:27;6.00;99.90
5226;DHT22;2632;51.666;7.146;2023-03-17T05:26:53;6.00;99.90
5226;DHT22;2632;51.666;7.146;2023-03-17T05:29:20;6.00;99.90
5226;DHT22;2632;51.666;7.146;2023-03-17T05:31:47;6.00;99.90
5226;DHT22;2632;51.666;7.146;2023-03-17T05:34:14;5.90;99.90
5226;DHT22;2632;51.666;7.146;2023-03-17T05:36:41;5.90;99.90
5226;DHT22;2632;51.666;7.146;2023-03-17T05:39:08;5.90;99.90
5226;DHT22;2632;51.666;7.146;2023-03-17T05:41:35;5.80;99.90
5226;DHT22;2632;51.666;7.146;2023-03-17T05:44:02;5.80;99.90
5226;DHT22;2632;51.666;7.146;2023-03-17T05:46:28;5.90;99.90
5226;DHT22;2632;51.666;7.146;2023-03-17T05:48:56;5.90;99.90
5226;DHT22;2632;51.666;7.146;2023-03-17T05:51:22;5.90;99.90
5226;DHT22;2632;51.666;7.146;2023-03-17T05:53:49;6.00;99.90
5226;DHT22;2632;51.666;7.146;2023-03-17T05:56:16;5.90;99.90
5226;DHT22;2632;51.666;7.146;2023-03-17T05:58:42;5.90;99.90
5226;DHT22;2632;51.666;7.146;2023-03-17T06:01:09;6.00;99.90
5226;DHT22;2632;51.666;7.146;2023-03-17T06:03:35;6.00;99.90
5226;DHT22;2632;51.666;7.146;2023-03-17T06:06:04;6.00;99.90
5226;DHT22;2632;51.666;7.146;2023-03-17T06:08:31;6.10;99.90
5226;DHT22;2632;51.666;7.146;2023-03-17T06:10:57;6.00;99.90
5226;DHT22;2632;51.666;7.146;2023-03-17T06:13:24;6.10;99.90
5226;DHT22;2632;51.666;7.146;2023-03-17T06:15:51;6.10;99.90
5226;DHT22;2632;51.666;7.146;2023-03-17T06:18:17;6.20;99.90
5226;DHT22;2632;51.666;7.146;2023-03-17T06:20:45;6.40;99.90
5226;DHT22;2632;51.666;7.146;2023-03-17T06:23:12;6.50;99.90
5226;DHT22;2632;51.666;7.146;2023-03-17T06:25:39;6.60;99.90
5226;DHT22;2632;51.666;7.146;2023-03-17T06:28:05;6.70;99.90
5226;DHT22;2632;51.666;7.146;2023-03-17T06:30:33;6.80;99.90
5226;DHT22;2632;51.666;7.146;2023-03-17T06:33:00;6.80;99.90
5226;DHT22;2632;51.666;7.146;2023-03-17T06:35:28;6.90;99.90
5226;DHT22;2632;51.666;7.146;2023-03-17T06:37:55;7.10;99.90
5226;DHT22;2632;51.666;7.146;2023-03-17T06:40:22;7.10;99.90
5226;DHT22;2632;51.666;7.146;2023-03-17T06:42:49;7.30;99.90
5226;DHT22;2632;51.666;7.146;2023-03-17T06:45:16;7.70;99.90
5226;DHT22;2632;51.666;7.146;2023-03-17T06:47:43;8.20;99.30
5226;DHT22;2632;51.666;7.146;2023-03-17T06:50:10;8.40;99.10
5226;DHT22;2632;51.666;7.146;2023-03-17T06:52:38;8.80;97.80
5226;DHT22;2632;51.666;7.146;2023-03-17T06:55:05;9.10;96.90
5226;DHT22;2632;51.666;7.146;2023-03-17T06:57:33;9.10;99.00
5226;DHT22;2632;51.666;7.146;2023-03-17T06:59:59;9.50;95.90
5226;DHT22;2632;51.666;7.146;2023-03-17T07:02:26;9.90;95.30
5226;DHT22;2632;51.666;7.146;2023-03-17T07:04:53;10.40;92.50
5226;DHT22;2632;51.666;7.146;2023-03-17T07:07:20;11.20;90.60
5226;DHT22;2632;51.666;7.146;2023-03-17T07:09:47;12.10;84.10
5226;DHT22;2632;51.666;7.146;2023-03-17T07:12:14;12.20;81.30
5226;DHT22;2632;51.666;7.146;2023-03-17T07:14:41;12.80;71.90
5226;DHT22;2632;51.666;7.146;2023-03-17T07:17:11;13.40;69.80
5226;DHT22;2632;51.666;7.146;2023-03-17T07:19:38;14.50;62.00
5226;DHT22;2632;51.666;7.146;2023-03-17T07:22:08;15.20;61.30
5226;DHT22;2632;51.666;7.146;2023-03-17T07:24:34;17.00;52.50
5226;DHT22;2632;51.666;7.146;2023-03-17T07:27:01;16.90;50.90
5226;DHT22;2632;51.666;7.146;2023-03-17T07:29:28;16.40;51.10
5226;DHT22;2632;51.666;7.146;2023-03-17T07:31:54;15.60;52.20
5226;DHT22;2632;51.666;7.146;2023-03-17T07:34:21;16.00;52.10
5226;DHT22;2632;51.666;7.146;2023-03-17T07:36:48;16.60;51.10
5226;DHT22;2632;51.666;7.146;2023-03-17T07:39:16;17.90;49.10
5226;DHT22;2632;51.666;7.146;2023-03-17T07:41:43;20.30;43.90
5226;DHT22;2632;51.666;7.146;2023-03-17T07:44:10;20.60;41.80
5226;DHT22;2632;51.666;7.146;2023-03-17T07:46:36;20.80;40.30
5226;DHT22;2632;51.666;7.146;2023-03-17T07:49:04;19.00;42.40
5226;DHT22;2632;51.666;7.146;2023-03-17T07:51:31;17.70;45.60
5226;DHT22;2632;51.666;7.146;2023-03-17T07:53:58;17.00;47.20
5226;DHT22;2632;51.666;7.146;2023-03-17T07:56:30;16.60;47.50
5226;DHT22;2632;51.666;7.146;2023-03-17T07:58:58;16.70;47.90
5226;DHT22;2632;51.666;7.146;2023-03-17T08:01:26;17.50;46.30
5226;DHT22;2632;51.666;7.146;2023-03-17T08:03:54;20.10;42.50
5226;DHT22;2632;51.666;7.146;2023-03-17T08:06:22;22.80;38.60
5226;DHT22;2632;51.666;7.146;2023-03-17T08:08:52;23.00;36.90
5226;DHT22;2632;51.666;7.146;2023-03-17T08:11:19;24.40;35.10
5226;DHT22;2632;51.666;7.146;2023-03-17T08:13:47;23.70;33.60
5226;DHT22;2632;51.666;7.146;2023-03-17T08:16:13;23.10;34.20
5226;DHT22;2632;51.666;7.146;2023-03-17T08:18:40;23.50;35.00
5226;DHT22;2632;51.666;7.146;2023-03-17T08:21:07;22.50;35.00
5226;DHT22;2632;51.666;7.146;2023-03-17T08:23:33;21.40;37.00
5226;DHT22;2632;51.666;7.146;2023-03-17T08:26:02;21.10;38.40
5226;DHT22;2632;51.666;7.146;2023-03-17T08:28:29;21.50;38.10
5226;DHT22;2632;51.666;7.146;2023-03-17T08:31:06;23.40;36.10
5226;DHT22;2632;51.666;7.146;2023-03-17T08:33:38;25.30;32.30
5226;DHT22;2632;51.666;7.146;2023-03-17T08:36:07;26.10;32.10
5226;DHT22;2632;51.666;7.146;2023-03-17T08:38:36;25.80;31.50
5226;DHT22;2632;51.666;7.146;2023-03-17T08:41:07;26.00;32.40
5226;DHT22;2632;51.666;7.146;2023-03-17T08:43:35;24.80;32.40
5226;DHT22;2632;51.666;7.146;2023-03-17T08:46:09;24.70;33.50
5226;DHT22;2632;51.666;7.146;2023-03-17T08:48:38;24.80;32.90
5226;DHT22;2632;51.666;7.146;2023-03-17T08:51:05;24.70;32.90
5226;DHT22;2632;51.666;7.146;2023-03-17T08:53:33;28.10;31.20
5226;DHT22;2632;51.666;7.146;2023-03-17T08:56:01;27.80;29.50
5226;DHT22;2632;51.666;7.146;2023-03-17T08:58:30;28.00;31.00
5226;DHT22;2632;51.666;7.146;2023-03-17T09:01:00;27.60;30.30
5226;DHT22;2632;51.666;7.146;2023-03-17T09:03:28;28.20;30.10
5226;DHT22;2632;51.666;7.146;2023-03-17T09:05:56;29.80;29.20
5226;DHT22;2632;51.666;7.146;2023-03-17T09:08:24;28.30;29.00
5226;DHT22;2632;51.666;7.146;2023-03-17T09:10:51;26.30;29.20
5226;DHT22;2632;51.666;7.146;2023-03-17T09:13:20;25.10;31.00
5226;DHT22;2632;51.666;7.146;2023-03-17T09:15:47;27.30;31.40
5226;DHT22;2632;51.666;7.146;2023-03-17T09:18:17;30.40;28.90
5226;DHT22;2632;51.666;7.146;2023-03-17T09:20:47;30.40;27.50
5226;DHT22;2632;51.666;7.146;2023-03-17T09:23:14;29.20;28.00
5226;DHT22;2632;51.666;7.146;2023-03-17T09:25:41;27.90;30.00
5226;DHT22;2632;51.666;7.146;2023-03-17T09:28:10;27.70;30.00
5226;DHT22;2632;51.666;7.146;2023-03-17T09:30:40;28.10;29.50
5226;DHT22;2632;51.666;7.146;2023-03-17T09:33:12;26.60;30.20
5226;DHT22;2632;51.666;7.146;2023-03-17T09:35:39;25.70;30.80
5226;DHT22;2632;51.666;7.146;2023-03-17T09:38:07;26.80;30.40
5226;DHT22;2632;51.666;7.146;2023-03-17T09:46:24;24.50;31.90
5226;DHT22;2632;51.666;7.146;2023-03-17T09:49:01;22.70;34.50
5226;DHT22;2632;51.666;7.146;2023-03-17T09:51:30;23.30;35.30
5226;DHT22;2632;51.666;7.146;2023-03-17T09:54:03;24.70;34.50
5226;DHT22;2632;51.666;7.146;2023-03-17T09:56:32;24.80;33.80
5226;DHT22;2632;51.666;7.146;2023-03-17T09:59:15;24.10;32.50
5226;DHT22;2632;51.666;7.146;2023-03-17T10:01:48;24.10;34.30
5226;DHT22;2632;51.666;7.146;2023-03-17T10:04:16;23.30;33.80
5226;DHT22;2632;51.666;7.146;2023-03-17T10:06:45;23.30;33.80
5226;DHT22;2632;51.666;7.146;2023-03-17T10:09:29;23.10;34.90
5226;DHT22;2632;51.666;7.146;2023-03-17T10:12:26;23.10;35.80
5226;DHT22;2632;51.666;7.146;2023-03-17T10:15:01;23.50;34.70
5226;DHT22;2632;51.666;7.146;2023-03-17T10:17:39;24.10;34.30
5226;DHT22;2632;51.666;7.146;2023-03-17T10:25:17;21.80;36.40
5226;DHT22;2632;51.666;7.146;2023-03-17T10:27:52;22.50;37.00
5226;DHT22;2632;51.666;7.146;2023-03-17T10:30:22;23.30;35.50
5226;DHT22;2632;51.666;7.146;2023-03-17T10:32:49;23.10;34.80
5226;DHT22;2632;51.666;7.146;2023-03-17T10:35:18;23.70;34.10
5226;DHT22;2632;51.666;7.146;2023-03-17T10:37:46;24.90;34.10
5226;DHT22;2632;51.666;7.146;2023-03-17T10:40:30;25.50;32.90
5226;DHT22;2632;51.666;7.146;2023-03-17T10:43:03;25.70;31.70
5226;DHT22;2632;51.666;7.146;2023-03-17T10:45:35;25.20;32.70
5226;DHT22;2632;51.666;7.146;2023-03-17T10:48:08;25.20;32.30
5226;DHT22;2632;51.666;7.146;2023-03-17T10:50:37;25.80;32.50
5226;DHT22;2632;51.666;7.146;2023-03-17T10:53:16;25.80;32.80
5226;DHT22;2632;51.666;7.146;2023-03-17T10:55:57;26.10;31.70
5226;DHT22;2632;51.666;7.146;2023-03-17T10:58:35;26.70;31.20
5226;DHT22;2632;51.666;7.146;2023-03-17T11:01:07;26.20;31.70
5226;DHT22;2632;51.666;7.146;2023-03-17T11:03:38;25.50;32.40
5226;DHT22;2632;51.666;7.146;2023-03-17T11:06:11;24.80;33.20
5226;DHT22;2632;51.666;7.146;2023-03-17T11:08:46;25.00;32.90
5226;DHT22;2632;51.666;7.146;2023-03-17T11:11:41;25.00;32.70
5226;DHT22;2632;51.666;7.146;2023-03-17T11:14:16;25.00;33.20
5226;DHT22;2632;51.666;7.146;2023-03-17T11:16:55;25.30;34.10
5226;DHT22;2632;51.666;7.146;2023-03-17T11:19:40;25.70;32.00
5226;DHT22;2632;51.666;7.146;2023-03-17T11:25:08;24.60;34.30
5226;DHT22;2632;51.666;7.146;2023-03-17T11:27:47;23.90;35.10
5226;DHT22;2632;51.666;7.146;2023-03-17T11:30:28;24.10;34.10
5226;DHT22;2632;51.666;7.146;2023-03-17T11:32:59;24.60;34.20
5226;DHT22;2632;51.666;7.146;2023-03-17T11:35:59;24.20;33.80
5226;DHT22;2632;51.666;7.146;2023-03-17T11:38:31;23.60;36.70
5226;DHT22;2632;51.666;7.146;2023-03-17T11:41:17;23.40;36.30
5226;DHT22;2632;51.666;7.146;2023-03-17T11:46:46;23.60;35.50
5226;DHT22;2632;51.666;7.146;2023-03-17T11:49:19;22.90;37.00
5226;DHT22;2632;51.666;7.146;2023-03-17T11:57:02;22.60;36.20
5226;DHT22;2632;51.666;7.146;2023-03-17T11:59:56;22.40;37.90
5226;DHT22;2632;51.666;7.146;2023-03-17T12:02:43;22.30;37.40
5226;DHT22;2632;51.666;7.146;2023-03-17T12:05:21;22.10;38.40
5226;DHT22;2632;51.666;7.146;2023-03-17T12:08:02;22.40;38.80
5226;DHT22;2632;51.666;7.146;2023-03-17T12:10:36;22.40;38.40
5226;DHT22;2632;51.666;7.146;2023-03-17T12:13:11;21.80;37.80
5226;DHT22;2632;51.666;7.146;2023-03-17T12:15:47;21.80;38.90
5226;DHT22;2632;51.666;7.146;2023-03-17T12:18:27;22.20;38.50
5226;DHT22;2632;51.666;7.146;2023-03-17T12:21:27;21.90;38.70
5226;DHT22;2632;51.666;7.146;2023-03-17T12:24:03;23.10;37.70
5226;DHT22;2632;51.666;7.146;2023-03-17T12:26:37;23.20;35.90
5226;DHT22;2632;51.666;7.146;2023-03-17T12:29:18;22.80;35.10
5226;DHT22;2632;51.666;7.146;2023-03-17T12:31:57;22.40;36.40
5226;DHT22;2632;51.666;7.146;2023-03-17T12:34:54;22.10;37.10
5226;DHT22;2632;51.666;7.146;2023-03-17T12:37:25;22.20;37.80
5226;DHT22;2632;51.666;7.146;2023-03-17T12:40:03;22.70;38.30
5226;DHT22;2632;51.666;7.146;2023-03-17T12:48:20;22.90;36.90
5226;DHT22;2632;51.666;7.146;2023-03-17T12:53:47;23.20;36.80
5226;DHT22;2632;51.666;7.146;2023-03-17T12:56:27;23.40;36.10
5226;DHT22;2632;51.666;7.146;2023-03-17T12:59:02;22.60;35.60
5226;DHT22;2632;51.666;7.146;2023-03-17T13:01:41;22.70;37.20
5226;DHT22;2632;51.666;7.146;2023-03-17T13:04:21;22.50;38.30
5226;DHT22;2632;51.666;7.146;2023-03-17T13:09:35;22.80;37.50
5226;DHT22;2632;51.666;7.146;2023-03-17T13:15:47;21.40;39.50
5226;DHT22;2632;51.666;7.146;2023-03-17T13:20:43;22.10;38.80
5226;DHT22;2632;51.666;7.146;2023-03-17T13:23:13;22.20;38.90
5226;DHT22;2632;51.666;7.146;2023-03-17T13:36:02;22.10;38.60
5226;DHT22;2632;51.666;7.146;2023-03-17T13:52:01;22.00;39.70
5226;DHT22;2632;51.666;7.146;2023-03-17T13:54:41;21.40;40.10
5226;DHT22;2632;51.666;7.146;2023-03-17T13:57:34;21.20;40.50
5226;DHT22;2632;51.666;7.146;2023-03-17T14:02:42;21.40;41.80
5226;DHT22;2632;51.666;7.146;2023-03-17T14:05:40;21.50;41.30
5226;DHT22;2632;51.666;7.146;2023-03-17T14:08:15;21.00;40.00
5226;DHT22;2632;51.666;7.146;2023-03-17T14:10:55;21.20;41.40
5226;DHT22;2632;51.666;7.146;2023-03-17T14:13:34;21.20;40.70
5226;DHT22;2632;51.666;7.146;2023-03-17T14:16:14;21.10;41.30
5226;DHT22;2632;51.666;7.146;2023-03-17T14:18:46;21.20;43.70
5226;DHT22;2632;51.666;7.146;2023-03-17T14:21:31;21.20;41.30
5226;DHT22;2632;51.666;7.146;2023-03-17T14:24:00;20.80;41.60
5226;DHT22;2632;51.666;7.146;2023-03-17T14:26:29;20.90;42.10
5226;DHT22;2632;51.666;7.146;2023-03-17T14:29:01;20.20;43.30
5226;DHT22;2632;51.666;7.146;2023-03-17T14:31:28;20.10;42.60
5226;DHT22;2632;51.666;7.146;2023-03-17T14:34:00;20.20;43.00
5226;DHT22;2632;51.666;7.146;2023-03-17T14:36:31;20.40;43.90
5226;DHT22;2632;51.666;7.146;2023-03-17T14:38:58;20.50;43.10
5226;DHT22;2632;51.666;7.146;2023-03-17T14:41:26;20.50;43.70
5226;DHT22;2632;51.666;7.146;2023-03-17T14:43:58;20.50;43.80
5226;DHT22;2632;51.666;7.146;2023-03-17T14:46:36;19.10;43.20
5226;DHT22;2632;51.666;7.146;2023-03-17T14:49:17;20.50;43.90
5226;DHT22;2632;51.666;7.146;2023-03-17T14:51:48;20.70;43.50
5226;DHT22;2632;51.666;7.146;2023-03-17T14:54:19;20.80;41.70
5226;DHT22;2632;51.666;7.146;2023-03-17T14:59:19;20.70;43.60
5226;DHT22;2632;51.666;7.146;2023-03-17T15:01:51;20.60;43.20
5226;DHT22;2632;51.666;7.146;2023-03-17T15:04:26;20.30;43.90
5226;DHT22;2632;51.666;7.146;2023-03-17T15:07:02;20.20;43.90
5226;DHT22;2632;51.666;7.146;2023-03-17T15:09:33;20.10;44.10
5226;DHT22;2632;51.666;7.146;2023-03-17T15:14:52;20.10;44.90
5226;DHT22;2632;51.666;7.146;2023-03-17T15:17:24;20.30;43.80
5226;DHT22;2632;51.666;7.146;2023-03-17T15:19:53;20.60;44.00
5226;DHT22;2632;51.666;7.146;2023-03-17T15:22:24;20.60;43.80
5226;DHT22;2632;51.666;7.146;2023-03-17T15:25:19;20.70;45.40
5226;DHT22;2632;51.666;7.146;2023-03-17T15:27:49;20.80;44.60
5226;DHT22;2632;51.666;7.146;2023-03-17T15:30:16;20.70;44.00
5226;DHT22;2632;51.666;7.146;2023-03-17T15:32:48;20.20;44.30
5226;DHT22;2632;51.666;7.146;2023-03-17T15:35:16;20.00;44.40
5226;DHT22;2632;51.666;7.146;2023-03-17T15:37:43;19.80;46.20
5226;DHT22;2632;51.666;7.146;2023-03-17T15:40:10;19.60;45.50
5226;DHT22;2632;51.666;7.146;2023-03-17T15:42:37;19.40;46.30
5226;DHT22;2632;51.666;7.146;2023-03-17T15:45:05;19.60;46.40
5226;DHT22;2632;51.666;7.146;2023-03-17T15:47:33;19.40;45.90
5226;DHT22;2632;51.666;7.146;2023-03-17T15:50:16;19.30;45.90
5226;DHT22;2632;51.666;7.146;2023-03-17T15:52:44;19.20;46.50
5226;DHT22;2632;51.666;7.146;2023-03-17T15:55:20;19.20;47.60
5226;DHT22;2632;51.666;7.146;2023-03-17T15:57:47;19.10;46.90
5226;DHT22;2632;51.666;7.146;2023-03-17T16:00:22;19.00;47.10
5226;DHT22;2632;51.666;7.146;2023-03-17T16:02:51;18.80;47.40
5226;DHT22;2632;51.666;7.146;2023-03-17T16:05:32;18.90;47.90
5226;DHT22;2632;51.666;7.146;2023-03-17T16:07:59;18.80;47.90
5226;DHT22;2632;51.666;7.146;2023-03-17T16:10:28;18.80;48.20
5226;DHT22;2632;51.666;7.146;2023-03-17T16:12:57;18.80;49.30
5226;DHT22;2632;51.666;7.146;2023-03-17T16:15:26;18.70;48.50
5226;DHT22;2632;51.666;7.146;2023-03-17T16:17:55;18.60;48.90
5226;DHT22;2632;51.666;7.146;2023-03-17T16:20:25;18.40;48.90
5226;DHT22;2632;51.666;7.146;2023-03-17T16:22:54;18.30;49.10
5226;DHT22;2632;51.666;7.146;2023-03-17T16:25:27;16.80;48.90
5226;DHT22;2632;51.666;7.146;2023-03-17T16:27:56;17.90;50.10
5226;DHT22;2632;51.666;7.146;2023-03-17T16:30:31;17.90;50.40
5226;DHT22;2632;51.666;7.146;2023-03-17T16:33:02;17.90;50.00
5226;DHT22;2632;51.666;7.146;2023-03-17T16:35:29;17.80;50.50
5226;DHT22;2632;51.666;7.146;2023-03-17T16:37:56;17.70;50.90
5226;DHT22;2632;51.666;7.146;2023-03-17T16:40:27;17.60;51.40
5226;DHT22;2632;51.666;7.146;2023-03-17T16:42:58;17.60;51.10
5226;DHT22;2632;51.666;7.146;2023-03-17T16:45:30;17.60;51.40
5226;DHT22;2632;51.666;7.146;2023-03-17T16:48:02;17.50;51.80
5226;DHT22;2632;51.666;7.146;2023-03-17T16:50:31;17.40;51.80
5226;DHT22;2632;51.666;7.146;2023-03-17T16:52:59;17.50;52.50
5226;DHT22;2632;51.666;7.146;2023-03-17T16:55:27;17.40;52.50
5226;DHT22;2632;51.666;7.146;2023-03-17T16:57:57;17.10;53.10
5226;DHT22;2632;51.666;7.146;2023-03-17T17:00:26;17.50;53.10
5226;DHT22;2632;51.666;7.146;2023-03-17T17:02:56;17.10;53.60
5226;DHT22;2632;51.666;7.146;2023-03-17T17:05:25;17.00;53.80
5226;DHT22;2632;51.666;7.146;2023-03-17T17:07:53;16.90;53.80
5226;DHT22;2632;51.666;7.146;2023-03-17T17:10:23;16.80;53.50
5226;DHT22;2632;51.666;7.146;2023-03-17T17:12:50;16.80;54.10
5226;DHT22;2632;51.666;7.146;2023-03-17T17:15:19;16.70;53.80
5226;DHT22;2632;51.666;7.146;2023-03-17T17:17:48;16.60;53.60
5226;DHT22;2632;51.666;7.146;2023-03-17T17:20:20;16.50;54.10
5226;DHT22;2632;51.666;7.146;2023-03-17T17:22:47;16.50;55.00
5226;DHT22;2632;51.666;7.146;2023-03-17T17:25:18;16.10;54.00
5226;DHT22;2632;51.666;7.146;2023-03-17T17:27:45;16.40;54.80
5226;DHT22;2632;51.666;7.146;2023-03-17T17:30:15;16.30;54.70
5226;DHT22;2632;51.666;7.146;2023-03-17T17:32:43;16.20;54.70
5226;DHT22;2632;51.666;7.146;2023-03-17T17:35:11;16.20;55.30
5226;DHT22;2632;51.666;7.146;2023-03-17T17:37:38;16.10;55.50
5226;DHT22;2632;51.666;7.146;2023-03-17T17:40:07;16.10;55.60
5226;DHT22;2632;51.666;7.146;2023-03-17T17:42:34;16.10;55.70
5226;DHT22;2632;51.666;7.146;2023-03-17T17:45:01;16.00;56.00
5226;DHT22;2632;51.666;7.146;2023-03-17T17:47:28;15.90;56.80
5226;DHT22;2632;51.666;7.146;2023-03-17T17:49:58;15.90;57.60